Aireys Inlet, Victoria

2:34 PM EST on July 31, 2014 (GMT +1000)
Aireys Inlet Victoria Australia (IVICTORI430) Elev 121 ft | 38.46 °S, 144.11 °E | Change Station

Current weather conditions updated 2 seconds ago

Rain Showers
Showers Rain
56.5 °F
Feels Like 56.5 °F
N
7.4
Wind Variable Wind from West
Gusts 12.3 mph

Today is forecast to be Much Cooler than yesterday. Mainly cloudy and rainy.

Today
High -- | Low -- °F
--% Chance of Precip.
Yesterday
High -- | Low -- °F
Precip. -- in
7:26 AM 5:33 PM
Waxing Crescent, 15% visible
Pressure 29.42 in
Visibility -9999.0 miles
Clouds Mostly Cloudy 1100 ft
Mostly Cloudy 1800 ft
Overcast 3900 ft
Dew Point 52 °F
Humidity 84%
Rainfall 0.18 in
Snow Depth Not available.
UV 0.0 out of 12
Pollen Not available.
Air Quality Not available.
Flu Activity Not available.
SPECI YMAV 310430Z AUTO 27021G33KT 4700 SHRA BKN011 BKN018 OVC039 10/09 Q0996 RESHRA

More Conditions Fewer Conditions

Pressure 29.42 in
Visibility -9999.0 miles
Clouds Mostly Cloudy 1100 ft
Mostly Cloudy 1800 ft
Overcast 3900 ft
Dew Point 52 °F
Humidity 84%
Rainfall 0.18 in
Snow Depth Not available.
UV 0.0 out of 12
Pollen Not available.
Air Quality Not available.
Flu Activity Not available.
SPECI YMAV 310430Z AUTO 27021G33KT 4700 SHRA BKN011 BKN018 OVC039 10/09 Q0996 RESHRA

More Conditions Fewer Conditions

10-Day Weather Forecast

Almanac

Astronomy

Jul. 31, 2014 Rise Set
Actual Time 7:26 AM EST 5:33 PM EST
Civil Twilight 6:58 AM EST 6:02 PM EST
Nautical Twilight 6:26 AM EST 6:34 PM EST
Astronomical Twilight 5:55 AM EST 7:05 PM EST
Moon 9:18 AM EST 9:38 PM EST
Length of Visible Light 11h 03m
Length of Day
10h 07m
Tomorrow will be 1m 47s longer.
Waxing Crescent, 15% of the Moon is Illuminated
Today
Waxing Crescent
Aug 3
First Quarter
Aug 10
Full
Aug 17
Last Quarter
Aug 25
New

Yesterday's Extremes

Country Highs Country Lows

Community

WunderPhotos

Upload Photos

1,739,239 photos uploaded!

Nearby

Snow Depth

Not available.

Earthquake Activity

City Distance Mag. Time & Date
No recent earthquake activity has been reported nearby.
Minimum magnitude displayed is 2.5.

Coastal Water Temperatures

Place Temperature
No Stations Reporting

Nearby Weather Stations

Station Location Temp. Windchill Dew Point Humidity Wind Precip. Elev Updated Type
Aireys Inlet Victoria Australia, Aireys Inlet 56.5 °F - 52 °F 84% West  at  7.4 mph 0.07 in / hr 121 ft 2:34 PM EST Rapid Fire
Lorne 45.6 °F 44 °F 44 °F 93% WNW  at  4.0 mph 0.12 in / hr 36 ft 2:30 PM EST Normal
Lorne 45.4 °F 45 °F 42 °F 89% WNW  at  2.0 mph 0.11 in / hr 295 ft 2:25 PM EST Normal
Moriac 45.8 °F 38 °F 44 °F 94% WSW  at  19.0 mph 0.08 in / hr 338 ft 2:34 PM EST Rapid Fire
Geelong, Grovedale 47.9 °F 41 °F 44 °F 87% SW  at  19.0 mph 0.12 in / hr 95 ft 2:23 PM EST Normal
Thomson, Geelong, Thomson 49.3 °F 43 °F 43 °F 79% WSW  at  18.6 mph 0.14 in / hr 66 ft 2:34 PM EST Rapid Fire

Show More Stations Show Fewer Stations